createdAt,value
2023-11-15T00:01:15.363Z,13.40
2023-11-15T00:03:42.626Z,13.20
2023-11-15T00:06:11.429Z,13.30
2023-11-15T00:08:39.109Z,12.80
2023-11-15T00:11:06.721Z,12.70
2023-11-15T00:13:39.048Z,12.80
2023-11-15T00:16:07.179Z,12.80
2023-11-15T00:18:34.562Z,12.80
2023-11-15T00:21:04.972Z,12.80
2023-11-15T00:23:32.377Z,13.30
2023-11-15T00:25:59.730Z,13.30
2023-11-15T00:28:29.945Z,12.70
2023-11-15T00:30:57.386Z,12.80
2023-11-15T00:33:25.152Z,13.30
2023-11-15T00:35:52.715Z,12.80
2023-11-15T00:38:20.016Z,12.80
2023-11-15T00:40:47.454Z,13.20
2023-11-15T00:43:16.420Z,13.20
2023-11-15T00:45:43.760Z,12.70
2023-11-15T00:48:12.550Z,13.40
2023-11-15T00:50:40.443Z,13.10
2023-11-15T00:53:07.738Z,13.20
2023-11-15T00:55:35.068Z,13.50
2023-11-15T00:58:04.859Z,12.90
2023-11-15T01:00:40.631Z,12.80
2023-11-15T01:03:08.100Z,13.30
2023-11-15T01:05:35.525Z,13.30
2023-11-15T01:08:05.546Z,13.30
2023-11-15T01:10:35.798Z,13.20
2023-11-15T01:13:02.947Z,12.80
2023-11-15T01:15:30.103Z,12.80
2023-11-15T01:17:58.454Z,12.90
2023-11-15T01:20:26.500Z,12.80
2023-11-15T01:22:53.761Z,12.80
2023-11-15T01:25:21.163Z,12.90
2023-11-15T01:27:48.285Z,12.50
2023-11-15T01:30:20.165Z,12.30
2023-11-15T01:32:47.478Z,13.70
2023-11-15T01:35:14.829Z,13.50
2023-11-15T01:37:52.891Z,13.70
2023-11-15T01:40:21.784Z,13.70
2023-11-15T01:42:59.700Z,13.40
2023-11-15T01:45:28.538Z,12.90
2023-11-15T01:47:56.156Z,13.50
2023-11-15T01:50:24.950Z,12.80
2023-11-15T01:52:52.317Z,13.20
2023-11-15T01:55:22.910Z,13.30
2023-11-15T01:57:50.628Z,13.00
2023-11-15T02:00:18.914Z,13.00
2023-11-15T02:02:46.350Z,13.00
2023-11-15T02:05:14.716Z,13.80
2023-11-15T02:07:44.238Z,12.90
2023-11-15T02:10:14.954Z,13.00
2023-11-15T02:12:42.730Z,12.80
2023-11-15T02:15:10.491Z,13.00
2023-11-15T02:17:37.928Z,13.00
2023-11-15T02:20:09.972Z,13.80
2023-11-15T02:22:54.598Z,13.00
2023-11-15T02:25:34.256Z,13.00
2023-11-15T02:28:41.688Z,13.40
2023-11-15T02:31:51.276Z,12.90
2023-11-15T02:34:29.578Z,13.00
2023-11-15T02:37:10.560Z,13.10
2023-11-15T02:40:09.964Z,13.10
2023-11-15T02:54:56.807Z,13.00
2023-11-15T02:57:23.615Z,13.10
2023-11-15T02:59:50.566Z,13.00
2023-11-15T03:02:17.666Z,13.10
2023-11-15T03:04:44.932Z,13.10
2023-11-15T03:07:11.957Z,13.10
2023-11-15T03:09:38.768Z,13.10
2023-11-15T03:12:06.004Z,13.10
2023-11-15T03:14:33.062Z,13.10
2023-11-15T03:17:07.809Z,13.10
2023-11-15T03:19:35.779Z,13.10
2023-11-15T03:22:02.589Z,13.10
2023-11-15T03:24:29.854Z,13.00
2023-11-15T03:26:56.990Z,13.10
2023-11-15T03:29:23.926Z,13.10
2023-11-15T03:31:50.822Z,13.10
2023-11-15T03:34:18.651Z,13.10
2023-11-15T03:36:45.554Z,13.10
2023-11-15T03:39:13.805Z,13.10
2023-11-15T03:41:40.779Z,13.10
2023-11-15T03:44:07.937Z,13.10
2023-11-15T03:46:34.851Z,13.10
2023-11-15T03:49:01.785Z,13.10
2023-11-15T03:51:28.953Z,13.10
2023-11-15T03:53:55.830Z,13.10
2023-11-15T03:56:22.784Z,13.10
2023-11-15T03:58:49.678Z,13.10
2023-11-15T04:01:16.614Z,13.10
2023-11-15T04:03:43.599Z,13.10
2023-11-15T04:06:11.313Z,13.10
2023-11-15T04:08:38.243Z,13.10
2023-11-15T04:11:05.721Z,13.10
2023-11-15T04:13:35.985Z,13.10
2023-11-15T04:16:04.338Z,13.10
2023-11-15T04:18:34.230Z,13.10
2023-11-15T04:21:01.203Z,13.10
2023-11-15T04:23:28.240Z,13.10
2023-11-15T04:25:55.127Z,13.10
2023-11-15T04:28:22.129Z,13.10
2023-11-15T04:30:49.023Z,13.10
2023-11-15T04:33:16.112Z,13.10
2023-11-15T04:35:43.124Z,13.10
2023-11-15T04:38:10.414Z,13.10
2023-11-15T04:40:38.232Z,13.10
2023-11-15T04:43:05.865Z,13.10
2023-11-15T04:45:32.733Z,13.10
2023-11-15T04:47:59.887Z,13.00
2023-11-15T04:50:26.885Z,13.00
2023-11-15T04:52:56.907Z,13.00
2023-11-15T04:55:25.561Z,13.00
2023-11-15T04:57:52.409Z,13.00
2023-11-15T05:00:20.261Z,12.90
2023-11-15T05:02:47.320Z,13.00
2023-11-15T05:05:15.599Z,13.00
2023-11-15T05:07:42.497Z,13.00
2023-11-15T05:10:10.712Z,13.10
2023-11-15T05:12:38.044Z,13.00
2023-11-15T05:15:06.193Z,13.00
2023-11-15T05:17:33.279Z,13.00
2023-11-15T05:20:00.424Z,13.00
2023-11-15T05:22:27.288Z,13.00
2023-11-15T05:24:55.856Z,13.10
2023-11-15T05:27:23.901Z,13.00
2023-11-15T05:29:51.659Z,13.10
2023-11-15T05:32:18.628Z,13.10
2023-11-15T05:34:45.600Z,13.10
2023-11-15T05:37:12.483Z,13.10
2023-11-15T05:39:39.708Z,13.10
2023-11-15T05:42:08.527Z,13.00
2023-11-15T05:44:35.453Z,13.10
2023-11-15T05:47:03.356Z,13.10
2023-11-15T05:49:31.943Z,13.10
2023-11-15T05:52:00.009Z,13.20
2023-11-15T05:54:28.763Z,13.10
2023-11-15T05:56:56.632Z,13.10
2023-11-15T05:59:23.478Z,13.00
2023-11-15T06:01:52.784Z,13.00
2023-11-15T06:04:19.682Z,12.90
2023-11-15T06:06:46.557Z,13.00
2023-11-15T06:09:15.714Z,13.00
2023-11-15T06:11:43.403Z,13.00
2023-11-15T06:14:10.830Z,13.00
2023-11-15T06:16:40.969Z,13.00
2023-11-15T06:19:08.632Z,13.00
2023-11-15T06:21:36.561Z,13.10
2023-11-15T06:24:03.757Z,13.10
2023-11-15T06:26:38.990Z,13.10
2023-11-15T06:29:06.555Z,13.10
2023-11-15T06:31:34.020Z,13.10
2023-11-15T06:34:00.980Z,13.10
2023-11-15T06:36:29.624Z,13.10
2023-11-15T06:38:56.466Z,13.10
2023-11-15T06:41:23.315Z,13.10
2023-11-15T06:43:50.345Z,13.10
2023-11-15T06:46:19.027Z,13.10
2023-11-15T06:48:47.238Z,13.10
2023-11-15T06:51:14.105Z,13.10
2023-11-15T06:53:41.470Z,13.10
2023-11-15T06:56:08.751Z,13.10
2023-11-15T06:58:36.790Z,13.10
2023-11-15T07:01:06.473Z,13.10
2023-11-15T07:03:33.417Z,13.10
2023-11-15T07:06:00.444Z,13.10
2023-11-15T07:08:27.538Z,13.20
2023-11-15T07:10:56.141Z,13.20
2023-11-15T07:13:24.099Z,13.20
2023-11-15T07:15:51.488Z,13.20
2023-11-15T07:18:18.772Z,13.20
2023-11-15T07:20:46.759Z,13.20
2023-11-15T07:23:13.756Z,13.20
2023-11-15T07:25:40.572Z,13.20
2023-11-15T07:28:09.336Z,13.20
2023-11-15T07:30:36.143Z,13.20
2023-11-15T07:33:04.675Z,13.20
2023-11-15T07:35:31.655Z,13.20
2023-11-15T07:37:58.584Z,13.20
2023-11-15T07:40:25.469Z,13.20
2023-11-15T07:42:52.365Z,13.30
2023-11-15T07:45:19.502Z,13.20
2023-11-15T07:47:47.103Z,13.30
2023-11-15T07:50:16.945Z,13.30
2023-11-15T07:52:44.417Z,13.30
2023-11-15T07:55:11.751Z,13.30
2023-11-15T07:57:38.669Z,13.40
2023-11-15T08:00:09.375Z,13.40
2023-11-15T08:02:39.527Z,13.40
2023-11-15T08:05:09.855Z,13.40
2023-11-15T08:07:39.911Z,13.40
2023-11-15T08:10:07.811Z,13.50
2023-11-15T08:12:36.998Z,13.50
2023-11-15T08:15:05.050Z,13.60
2023-11-15T08:17:32.655Z,13.60
2023-11-15T08:19:59.551Z,13.60
2023-11-15T08:22:26.650Z,13.70
2023-11-15T08:24:53.658Z,13.40
2023-11-15T08:27:20.656Z,13.80
2023-11-15T08:46:03.675Z,14.50
2023-11-15T08:48:40.913Z,14.50
2023-11-15T08:51:20.382Z,14.80
2023-11-15T08:53:47.616Z,15.50
2023-11-15T08:56:23.681Z,15.80
2023-11-15T08:59:06.296Z,15.80
2023-11-15T09:01:39.890Z,16.10
2023-11-15T09:04:07.354Z,16.50
2023-11-15T09:06:35.830Z,17.00
2023-11-15T09:09:05.177Z,17.00
2023-11-15T09:11:32.783Z,17.40
2023-11-15T09:13:59.960Z,17.80
2023-11-15T09:16:27.050Z,18.20
2023-11-15T09:18:56.671Z,18.50
2023-11-15T09:21:23.865Z,18.90
2023-11-15T09:23:50.905Z,19.10
2023-11-15T09:26:20.408Z,19.20
2023-11-15T09:28:47.946Z,19.30
2023-11-15T09:31:14.948Z,19.30
2023-11-15T09:33:42.003Z,19.30
2023-11-15T09:36:11.741Z,19.30
2023-11-15T09:38:41.005Z,19.40
2023-11-15T09:41:13.235Z,19.60
2023-11-15T09:43:40.935Z,19.80
2023-11-15T09:46:13.432Z,19.90
2023-11-15T09:48:53.388Z,20.00
2023-11-15T09:51:31.260Z,19.90
2023-11-15T09:54:08.321Z,19.70
2023-11-15T09:56:46.896Z,19.70
2023-11-15T09:59:15.090Z,19.50
2023-11-15T10:01:46.986Z,19.90
2023-11-15T10:04:28.833Z,20.00
2023-11-15T10:07:06.110Z,20.10
2023-11-15T10:09:43.997Z,20.30
2023-11-15T10:12:11.618Z,20.50
2023-11-15T10:15:06.299Z,20.50
2023-11-15T10:17:46.191Z,20.40
2023-11-15T10:20:22.718Z,20.30
2023-11-15T10:22:50.147Z,20.10
2023-11-15T10:25:17.241Z,19.80
2023-11-15T10:27:44.138Z,19.60
2023-11-15T10:30:14.564Z,19.30
2023-11-15T10:32:45.452Z,19.00
2023-11-15T10:35:24.578Z,18.70
2023-11-15T10:37:53.076Z,18.40
2023-11-15T10:40:22.591Z,18.20
2023-11-15T10:42:51.812Z,17.90
2023-11-15T10:45:24.071Z,17.70
2023-11-15T10:47:58.573Z,17.50
2023-11-15T10:50:28.097Z,17.40
2023-11-15T10:52:55.816Z,17.50
2023-11-15T10:55:24.164Z,17.70
2023-11-15T10:57:52.564Z,18.10
2023-11-15T11:00:21.271Z,18.50
2023-11-15T11:02:51.453Z,19.00
2023-11-15T11:05:41.910Z,19.40
2023-11-15T11:08:55.485Z,19.90
2023-11-15T11:11:30.157Z,20.50
2023-11-15T11:14:19.997Z,20.90
2023-11-15T11:16:47.227Z,21.30
2023-11-15T11:19:18.079Z,21.50
2023-11-15T11:22:04.897Z,21.60
2023-11-15T11:24:49.846Z,21.60
2023-11-15T11:27:16.799Z,21.50
2023-11-15T11:29:52.675Z,21.40
2023-11-15T11:32:32.445Z,21.30
2023-11-15T11:35:27.520Z,21.10
2023-11-15T11:37:55.062Z,21.00
2023-11-15T11:40:27.051Z,20.90
2023-11-15T11:42:54.318Z,20.70
2023-11-15T11:45:24.246Z,20.50
2023-11-15T11:47:51.215Z,20.40
2023-11-15T11:50:19.801Z,20.20
2023-11-15T11:52:46.786Z,20.00
2023-11-15T11:55:15.173Z,19.90
2023-11-15T11:57:41.993Z,19.70
2023-11-15T12:00:15.827Z,19.60
2023-11-15T12:02:51.646Z,19.50
2023-11-15T12:05:24.826Z,19.40
2023-11-15T12:07:57.486Z,19.30
2023-11-15T12:10:26.138Z,19.10
2023-11-15T12:13:00.783Z,19.20
2023-11-15T12:15:28.200Z,19.20
2023-11-15T12:17:56.865Z,19.20
2023-11-15T12:20:31.849Z,19.20
2023-11-15T12:23:09.126Z,19.20
2023-11-15T12:25:53.100Z,19.10
2023-11-15T12:28:26.859Z,19.10
2023-11-15T12:30:58.670Z,19.00
2023-11-15T12:33:27.314Z,19.00
2023-11-15T12:35:55.229Z,18.90
2023-11-15T12:38:23.187Z,18.70
2023-11-15T12:41:02.561Z,18.60
2023-11-15T12:43:31.589Z,18.40
2023-11-15T12:46:04.310Z,18.30
2023-11-15T12:48:31.221Z,18.10
2023-11-15T12:51:03.454Z,17.90
2023-11-15T12:53:31.697Z,17.80
2023-11-15T12:55:59.902Z,17.70
2023-11-15T12:58:30.022Z,17.60
2023-11-15T13:01:08.342Z,17.60
2023-11-15T13:03:37.651Z,17.50
2023-11-15T13:06:11.151Z,17.40
2023-11-15T13:08:39.473Z,17.40
2023-11-15T13:11:07.091Z,17.30
2023-11-15T13:13:34.265Z,17.30
2023-11-15T13:16:01.368Z,17.30
2023-11-15T13:18:28.302Z,17.20
2023-11-15T13:20:59.332Z,17.20
2023-11-15T13:23:26.638Z,17.20
2023-11-15T13:25:56.159Z,17.20
2023-11-15T13:28:23.261Z,17.10
2023-11-15T13:30:50.228Z,17.10
2023-11-15T13:33:19.120Z,17.00
2023-11-15T13:35:46.758Z,16.90
2023-11-15T13:38:13.799Z,16.90
2023-11-15T13:40:42.704Z,16.80
2023-11-15T13:43:09.634Z,16.70
2023-11-15T13:45:36.529Z,16.60
2023-11-15T13:48:04.536Z,16.50
2023-11-15T13:50:31.457Z,16.50
2023-11-15T13:52:58.236Z,16.30
2023-11-15T13:55:25.886Z,16.20
2023-11-15T13:57:53.329Z,16.20
2023-11-15T14:00:24.867Z,16.10
2023-11-15T14:02:52.915Z,16.00
2023-11-15T14:05:21.752Z,15.90
2023-11-15T14:07:48.622Z,15.90
2023-11-15T14:10:23.570Z,15.90
2023-11-15T14:12:51.538Z,15.80
2023-11-15T14:15:20.228Z,15.80
2023-11-15T14:17:49.657Z,15.70
2023-11-15T14:20:23.742Z,15.60
2023-11-15T14:22:50.652Z,15.60
2023-11-15T14:25:24.414Z,15.50
2023-11-15T14:27:56.239Z,15.50
2023-11-15T14:30:24.949Z,15.50
2023-11-15T14:32:52.620Z,15.50
2023-11-15T14:35:20.152Z,15.40
2023-11-15T14:37:51.431Z,15.40
2023-11-15T14:40:22.157Z,15.40
2023-11-15T14:42:51.988Z,15.30
2023-11-15T14:45:19.787Z,15.30
2023-11-15T14:47:46.885Z,15.20
2023-11-15T14:50:18.279Z,15.20
2023-11-15T14:52:54.031Z,15.10
2023-11-15T14:55:32.504Z,15.10
2023-11-15T14:58:00.466Z,15.00
2023-11-15T15:00:27.892Z,14.90
2023-11-15T15:02:55.316Z,14.90
2023-11-15T15:05:25.484Z,14.80
2023-11-15T15:07:52.514Z,14.80
2023-11-15T15:10:20.917Z,14.70
2023-11-15T15:12:48.479Z,14.70
2023-11-15T15:15:18.681Z,14.60
2023-11-15T15:17:46.360Z,14.60
2023-11-15T15:20:20.458Z,14.50
2023-11-15T15:22:47.928Z,14.50
2023-11-15T15:25:15.869Z,14.50
2023-11-15T15:27:43.163Z,14.50
2023-11-15T15:30:20.369Z,14.40
2023-11-15T15:32:47.749Z,14.40
2023-11-15T15:35:15.992Z,14.40
2023-11-15T15:37:47.378Z,14.40
2023-11-15T15:40:19.356Z,14.30
2023-11-15T15:42:47.529Z,14.30
2023-11-15T15:45:16.154Z,14.30
2023-11-15T15:47:44.364Z,14.20
2023-11-15T15:50:12.410Z,14.20
2023-11-15T15:52:40.114Z,14.10
2023-11-15T15:55:08.061Z,14.10
2023-11-15T15:57:34.886Z,14.00
2023-11-15T16:00:03.391Z,14.00
2023-11-15T16:02:35.833Z,13.90
2023-11-15T16:05:07.105Z,13.90
2023-11-15T16:07:34.532Z,13.80
2023-11-15T16:10:02.428Z,13.80
2023-11-15T16:12:33.393Z,13.70
2023-11-15T16:15:00.460Z,13.60
2023-11-15T16:17:29.910Z,13.60
2023-11-15T16:19:58.576Z,13.50
2023-11-15T16:22:26.430Z,13.50
2023-11-15T16:24:55.367Z,13.40
2023-11-15T16:27:33.831Z,13.40
2023-11-15T16:30:14.112Z,13.10
2023-11-15T16:32:41.655Z,13.30
2023-11-15T16:35:09.550Z,13.20
2023-11-15T16:37:39.264Z,13.20
2023-11-15T16:40:08.871Z,13.10
2023-11-15T16:42:36.443Z,13.10
2023-11-15T16:45:07.230Z,13.00
2023-11-15T16:47:35.753Z,13.00
2023-11-15T16:50:04.689Z,12.90
2023-11-15T16:52:33.938Z,12.90
2023-11-15T16:55:02.036Z,12.90
2023-11-15T16:57:29.329Z,12.80
2023-11-15T16:59:58.516Z,12.80
2023-11-15T17:02:25.724Z,12.80
2023-11-15T17:04:53.065Z,12.70
2023-11-15T17:07:20.074Z,12.70
2023-11-15T17:09:50.386Z,12.60
2023-11-15T17:12:17.658Z,12.60
2023-11-15T17:14:44.849Z,12.60
2023-11-15T17:17:11.721Z,12.70
2023-11-15T17:19:38.582Z,12.60
2023-11-15T17:22:06.122Z,12.60
2023-11-15T17:24:32.935Z,12.70
2023-11-15T17:26:59.817Z,12.60
2023-11-15T17:29:27.131Z,12.70
2023-11-15T17:31:55.025Z,12.60
2023-11-15T17:34:21.990Z,12.60
2023-11-15T17:36:49.870Z,12.60
2023-11-15T17:39:16.814Z,12.50
2023-11-15T17:41:44.068Z,12.50
2023-11-15T17:44:15.627Z,12.50
2023-11-15T17:46:43.448Z,12.50
2023-11-15T17:49:11.708Z,12.50
2023-11-15T17:51:38.761Z,12.40
2023-11-15T17:54:07.881Z,12.40
2023-11-15T17:56:35.136Z,12.30
2023-11-15T17:59:03.576Z,12.30
2023-11-15T18:01:34.409Z,12.30
2023-11-15T18:04:14.805Z,12.30
2023-11-15T18:06:42.771Z,12.20
2023-11-15T18:09:10.242Z,12.20
2023-11-15T18:11:37.131Z,12.20
2023-11-15T18:14:04.953Z,12.20
2023-11-15T18:16:32.415Z,12.20
2023-11-15T18:19:05.826Z,12.20
2023-11-15T18:21:33.719Z,12.20
2023-11-15T18:24:01.467Z,12.20
2023-11-15T18:26:29.375Z,12.20
2023-11-15T18:28:57.519Z,12.20
2023-11-15T18:31:24.742Z,12.10
2023-11-15T18:33:51.763Z,12.10
2023-11-15T18:36:18.798Z,12.10
2023-11-15T18:38:46.923Z,12.10
2023-11-15T18:41:16.083Z,12.10
2023-11-15T18:43:44.961Z,12.10
2023-11-15T18:46:11.869Z,12.10
2023-11-15T18:48:39.823Z,12.00
2023-11-15T18:51:07.079Z,12.00
2023-11-15T18:53:34.044Z,12.00
2023-11-15T18:56:01.041Z,12.00
2023-11-15T18:58:28.549Z,12.00
2023-11-15T19:00:55.511Z,12.00
2023-11-15T19:03:22.601Z,11.90
2023-11-15T19:05:49.643Z,11.90
2023-11-15T19:08:19.171Z,11.90
2023-11-15T19:10:46.116Z,11.90
2023-11-15T19:13:15.029Z,11.90
2023-11-15T19:15:41.869Z,11.80
2023-11-15T19:18:09.720Z,11.80
2023-11-15T19:20:39.978Z,11.80
2023-11-15T19:23:09.995Z,11.90
2023-11-15T19:25:38.095Z,11.90
2023-11-15T19:28:07.929Z,11.80
2023-11-15T19:30:35.728Z,11.80
2023-11-15T19:33:02.747Z,11.80
2023-11-15T19:35:31.309Z,11.80
2023-11-15T19:37:58.202Z,11.80
2023-11-15T19:40:25.196Z,11.80
2023-11-15T19:42:52.248Z,11.80
2023-11-15T19:45:19.253Z,11.80
2023-11-15T19:47:46.547Z,11.70
2023-11-15T19:50:13.612Z,11.70
2023-11-15T19:52:44.173Z,11.70
2023-11-15T19:55:14.420Z,11.70
2023-11-15T19:57:41.651Z,11.70
2023-11-15T20:00:12.884Z,11.70
2023-11-15T20:02:46.908Z,11.70
2023-11-15T20:05:15.797Z,11.60
2023-11-15T20:07:42.898Z,11.60
2023-11-15T20:10:11.508Z,11.60
2023-11-15T20:12:40.404Z,11.60
2023-11-15T20:15:08.497Z,11.60
2023-11-15T20:17:35.574Z,11.60
2023-11-15T20:20:04.781Z,11.60
2023-11-15T20:22:41.578Z,11.70
2023-11-15T20:25:12.934Z,11.70
2023-11-15T20:27:39.757Z,11.70
2023-11-15T20:30:10.041Z,11.70
2023-11-15T20:32:36.927Z,11.70
2023-11-15T20:35:04.746Z,11.70
2023-11-15T20:37:32.063Z,11.70
2023-11-15T20:39:59.096Z,11.70
2023-11-15T20:42:26.934Z,11.60
2023-11-15T20:44:55.568Z,11.70
2023-11-15T20:47:23.435Z,11.60
2023-11-15T20:49:53.130Z,11.60
2023-11-15T20:52:20.250Z,11.60
2023-11-15T20:54:47.110Z,11.50
2023-11-15T20:57:14.105Z,11.50
2023-11-15T20:59:41.552Z,11.50
2023-11-15T21:02:08.843Z,11.50
2023-11-15T21:04:36.875Z,11.50
2023-11-15T21:07:03.857Z,11.40
2023-11-15T21:09:30.783Z,11.40
2023-11-15T21:11:57.656Z,11.40
2023-11-15T21:14:26.352Z,11.40
2023-11-15T21:16:53.494Z,11.30
2023-11-15T21:19:20.430Z,11.30
2023-11-15T21:21:47.329Z,11.30
2023-11-15T21:24:14.250Z,11.30
2023-11-15T21:26:41.737Z,11.30
2023-11-15T21:29:11.849Z,11.30
2023-11-15T21:31:40.832Z,11.30
2023-11-15T21:34:08.947Z,11.30
2023-11-15T21:36:39.411Z,11.20
2023-11-15T21:39:09.453Z,11.20
2023-11-15T21:41:36.941Z,11.20
2023-11-15T21:44:04.864Z,11.30
2023-11-15T21:46:31.733Z,11.20
2023-11-15T21:48:58.721Z,11.20
2023-11-15T21:51:27.261Z,11.10
2023-11-15T21:53:54.935Z,11.10
2023-11-15T21:56:22.126Z,11.10
2023-11-15T21:58:49.927Z,11.10
2023-11-15T22:01:16.776Z,11.10
2023-11-15T22:03:43.850Z,11.00
2023-11-15T22:06:11.644Z,11.10
2023-11-15T22:08:39.690Z,11.00
2023-11-15T22:11:06.830Z,11.00
2023-11-15T22:13:33.770Z,11.00
2023-11-15T22:16:00.713Z,11.00
2023-11-15T22:18:30.966Z,11.00
2023-11-15T22:20:58.198Z,11.00
2023-11-15T22:23:25.525Z,11.00
2023-11-15T22:25:53.002Z,11.00
2023-11-15T22:28:19.980Z,10.90
2023-11-15T22:30:47.856Z,10.90
2023-11-15T22:33:14.992Z,10.90
2023-11-15T22:35:49.058Z,10.90
2023-11-15T22:38:16.887Z,10.90
2023-11-15T22:40:44.041Z,10.90
2023-11-15T22:43:11.776Z,10.90
2023-11-15T22:45:38.914Z,10.80
2023-11-15T22:48:07.345Z,10.80
2023-11-15T22:50:34.260Z,10.80
2023-11-15T22:53:01.122Z,10.80
2023-11-15T22:55:28.099Z,10.80
2023-11-15T22:57:55.013Z,10.80
2023-11-15T23:00:48.082Z,10.70
2023-11-15T23:03:15.361Z,10.70
2023-11-15T23:05:43.802Z,10.70
2023-11-15T23:08:15.302Z,10.70
2023-11-15T23:10:44.049Z,11.10
2023-11-15T23:13:11.104Z,10.70
2023-11-15T23:15:39.158Z,10.70
2023-11-15T23:18:06.376Z,10.60
2023-11-15T23:20:41.726Z,10.60
2023-11-15T23:23:08.848Z,10.60
2023-11-15T23:25:35.650Z,10.60
2023-11-15T23:28:03.907Z,10.60
2023-11-15T23:30:30.932Z,10.60
2023-11-15T23:32:58.645Z,10.50
2023-11-15T23:35:25.685Z,10.50
2023-11-15T23:37:58.437Z,10.50
2023-11-15T23:40:29.954Z,10.50
2023-11-15T23:42:57.212Z,10.50
2023-11-15T23:45:24.733Z,10.50
2023-11-15T23:47:52.386Z,10.40
2023-11-15T23:50:20.196Z,10.40
2023-11-15T23:52:51.456Z,10.40
2023-11-15T23:55:22.463Z,10.40
2023-11-15T23:57:50.029Z,10.30
